Orbital elements of SL-12 R/B(2)
| Launched | 22 October 1991 |
| Flight ended | – |
| Launch site | Tyuratam Missile and Space Center, Kazakhstan (Also known as Baikonur Cosmodrome) |
| Owner | Commonwealth of Independent States (former USSR) |
| NORAD ID | 21762 |
| Date fetched |
Epoch osculation |
Inc. [°] |
Ecc. | RA asc node [hr] |
Arg Peri. [°] |
Mean anom [°] |
Mean motion [rev/day] |
Abs. mag |
| Date fetched |
Epoch osculation |
Inc. [°] |
Ecc. | RA asc node [hr] |
Arg Peri. [°] |
Mean anom [°] |
Mean motion [rev/day] |
Abs. mag |
| 2026 May 05 17:57 | 2026 May 05 00:52:30 | 13.4816 | 0.00015 | 22.7785 | 255.9775 | 289.1084 | 0.99703 | – |
| 2026 May 04 17:57 | 2026 Apr 30 13:06:30 | 13.4853 | 0.00015 | 22.7805 | 253.4696 | 289.1084 | 0.99703 | – |
| 2026 May 03 17:57 | 2026 Apr 30 13:06:30 | 13.4853 | 0.00015 | 22.7805 | 253.4696 | 289.1084 | 0.99703 | – |
| 2026 May 02 17:57 | 2026 Apr 30 13:06:30 | 13.4853 | 0.00015 | 22.7805 | 253.4696 | 289.1084 | 0.99703 | – |
| 2026 May 01 17:56 | 2026 Apr 30 13:06:30 | 13.4853 | 0.00015 | 22.7805 | 253.4696 | 289.1084 | 0.99703 | – |
| 2026 Apr 30 17:56 | 2026 Apr 30 13:06:30 | 13.4853 | 0.00015 | 22.7805 | 253.4696 | 289.1084 | 0.99703 | – |
| 2026 Apr 29 17:57 | 2026 Apr 23 23:44:28 | 13.4902 | 0.00014 | 22.7836 | 254.7327 | 289.1084 | 0.99703 | – |
| 2026 Apr 28 17:56 | 2026 Apr 23 23:44:28 | 13.4902 | 0.00014 | 22.7836 | 254.7327 | 289.1084 | 0.99703 | – |
| 2026 Apr 27 17:58 | 2026 Apr 23 23:44:28 | 13.4902 | 0.00014 | 22.7836 | 254.7327 | 289.1084 | 0.99703 | – |
| 2026 Apr 26 17:58 | 2026 Apr 23 23:44:28 | 13.4902 | 0.00014 | 22.7836 | 254.7327 | 289.1084 | 0.99703 | – |
| 2026 Apr 25 17:58 | 2026 Apr 23 23:44:28 | 13.4902 | 0.00014 | 22.7836 | 254.7327 | 289.1084 | 0.99703 | – |
| 2026 Apr 24 17:59 | 2026 Apr 23 23:44:28 | 13.4902 | 0.00014 | 22.7836 | 254.7327 | 289.1084 | 0.99703 | – |
| 2026 Apr 23 17:57 | 2026 Apr 19 00:00:02 | 13.4936 | 0.00014 | 22.7860 | 257.2675 | 289.1084 | 0.99703 | – |
| 2026 Apr 22 17:57 | 2026 Apr 19 00:00:02 | 13.4936 | 0.00014 | 22.7860 | 257.2675 | 289.1084 | 0.99703 | – |
| 2026 Apr 21 17:57 | 2026 Apr 19 00:00:02 | 13.4936 | 0.00014 | 22.7860 | 257.2675 | 289.1084 | 0.99703 | – |
| 2026 Apr 20 17:57 | 2026 Apr 19 00:00:02 | 13.4936 | 0.00014 | 22.7860 | 257.2675 | 289.1084 | 0.99703 | – |
| 2026 Apr 19 17:58 | 2026 Apr 19 00:00:02 | 13.4936 | 0.00014 | 22.7860 | 257.2675 | 289.1084 | 0.99703 | – |
| 2026 Apr 18 17:56 | 2026 Apr 12 22:36:24 | 13.4979 | 0.00016 | 22.7888 | 262.6386 | 289.1084 | 0.99703 | – |
| 2026 Apr 16 17:57 | 2026 Apr 12 22:36:24 | 13.4979 | 0.00016 | 22.7888 | 262.6386 | 289.1084 | 0.99703 | – |
| 2026 Apr 14 17:57 | 2026 Apr 12 22:36:24 | 13.4979 | 0.00016 | 22.7888 | 262.6386 | 289.1084 | 0.99703 | – |
| 2026 Apr 13 17:57 | 2026 Apr 12 22:36:24 | 13.4979 | 0.00016 | 22.7888 | 262.6386 | 289.1084 | 0.99703 | – |
| 2026 Apr 12 17:57 | 2026 Apr 07 22:51:47 | 13.5016 | 0.00017 | 22.7911 | 263.2602 | 289.1084 | 0.99703 | – |
| 2026 Apr 11 17:57 | 2026 Apr 07 22:51:47 | 13.5016 | 0.00017 | 22.7911 | 263.2602 | 289.1084 | 0.99703 | – |
| 2026 Apr 10 17:58 | 2026 Apr 07 22:51:47 | 13.5016 | 0.00017 | 22.7911 | 263.2602 | 289.1084 | 0.99703 | – |
| 2026 Apr 09 18:01 | 2026 Apr 07 22:51:47 | 13.5016 | 0.00017 | 22.7911 | 263.2602 | 289.1084 | 0.99703 | – |
| 2026 Apr 08 17:57 | 2026 Apr 07 22:51:47 | 13.5016 | 0.00017 | 22.7911 | 263.2602 | 289.1084 | 0.99703 | – |